Details for Ryanair at ENRY




Go Back


Latest METAR
Local Time

ENRY 250450Z AUTO VRB02KT 9999NDV NCD 15/11 Q1028

25/05/2018, 07:05:22

Description
Results
Ryanair Logo
Number of Pilots based at ENRY
0 Pilots Based here
Number of Ryanair Flights Departed from ENRY
0 Flights Departed
Number of Ryanair Flights Arrived at ENRY
0 Flights Arrived
Number of Ryanair Schedules Departing from ENRY
0 Schedules
Number of Ryanair Schedules Arriving at ENRY
0 Schedules
Number of Ryanair Schedules Departing from ENRY availible today
0 Schedules Today
Number of Ryanair Schedules Arriving at ENRY availible today
0 Schedules Today
Average Landing Rate at ENRY
-145 fpm
Ryanair Average Landing Rate at ENRY
0 fpm
Total Fuel Purchased at ENRY by Ryanair
0.00 kgs / 0.00 lbs

Pilots Based at ENRY


Pilot ID
Pilot Name
Pilot Rank
No. of Flights
No. of Flying Hours
There are no pilots assigned to this hub!   Will you be the first?
Content